sensor_id;sensor_type;location;lat;lon;timestamp;P1;durP1;ratioP1;P2;durP2;ratioP2
59571;SDS011;59406;45.602;11.904;2022-09-09T00:11:17;8.13;;;4.07;;
59571;SDS011;59406;45.602;11.904;2022-09-09T00:13:52;7.97;;;3.97;;
59571;SDS011;59406;45.602;11.904;2022-09-09T00:16:24;9.32;;;4.88;;
59571;SDS011;59406;45.602;11.904;2022-09-09T00:19:36;9.38;;;4.10;;
59571;SDS011;59406;45.602;11.904;2022-09-09T00:21:50;8.38;;;4.32;;
59571;SDS011;59406;45.602;11.904;2022-09-09T00:27:16;8.82;;;3.65;;
59571;SDS011;59406;45.602;11.904;2022-09-09T00:29:53;8.95;;;5.22;;
59571;SDS011;59406;45.602;11.904;2022-09-09T00:32:22;9.70;;;5.07;;
59571;SDS011;59406;45.602;11.904;2022-09-09T00:35:01;8.77;;;4.53;;
59571;SDS011;59406;45.602;11.904;2022-09-09T00:37:38;12.17;;;5.87;;
59571;SDS011;59406;45.602;11.904;2022-09-09T00:40:24;9.82;;;4.85;;
59571;SDS011;59406;45.602;11.904;2022-09-09T00:48:22;9.43;;;5.70;;
59571;SDS011;59406;45.602;11.904;2022-09-09T00:51:05;9.57;;;5.70;;
59571;SDS011;59406;45.602;11.904;2022-09-09T00:54:05;12.48;;;6.28;;
59571;SDS011;59406;45.602;11.904;2022-09-09T00:56:46;10.05;;;5.70;;
59571;SDS011;59406;45.602;11.904;2022-09-09T00:59:48;9.70;;;5.53;;
59571;SDS011;59406;45.602;11.904;2022-09-09T01:04:59;10.53;;;6.13;;
59571;SDS011;59406;45.602;11.904;2022-09-09T01:07:36;11.30;;;5.55;;
59571;SDS011;59406;45.602;11.904;2022-09-09T01:10:04;9.38;;;5.07;;
59571;SDS011;59406;45.602;11.904;2022-09-09T01:12:41;11.13;;;5.95;;
59571;SDS011;59406;45.602;11.904;2022-09-09T01:15:10;9.67;;;5.67;;
59571;SDS011;59406;45.602;11.904;2022-09-09T01:17:49;9.98;;;4.63;;
59571;SDS011;59406;45.602;11.904;2022-09-09T01:20:48;8.93;;;4.80;;
59571;SDS011;59406;45.602;11.904;2022-09-09T01:23:33;8.40;;;4.05;;
59571;SDS011;59406;45.602;11.904;2022-09-09T01:29:00;10.47;;;5.80;;
59571;SDS011;59406;45.602;11.904;2022-09-09T01:31:31;11.02;;;5.63;;
59571;SDS011;59406;45.602;11.904;2022-09-09T01:34:01;8.30;;;4.80;;
59571;SDS011;59406;45.602;11.904;2022-09-09T01:36:42;11.65;;;6.60;;
59571;SDS011;59406;45.602;11.904;2022-09-09T01:39:13;10.75;;;6.93;;
59571;SDS011;59406;45.602;11.904;2022-09-09T01:41:39;13.43;;;6.00;;
59571;SDS011;59406;45.602;11.904;2022-09-09T01:44:06;11.82;;;6.70;;
59571;SDS011;59406;45.602;11.904;2022-09-09T01:46:33;11.23;;;5.95;;
59571;SDS011;59406;45.602;11.904;2022-09-09T01:48:59;12.60;;;7.03;;
59571;SDS011;59406;45.602;11.904;2022-09-09T01:51:28;12.00;;;7.00;;
59571;SDS011;59406;45.602;11.904;2022-09-09T01:53:54;11.38;;;6.28;;
59571;SDS011;59406;45.602;11.904;2022-09-09T02:01:31;10.07;;;6.03;;
59571;SDS011;59406;45.602;11.904;2022-09-09T02:04:10;10.43;;;6.03;;
59571;SDS011;59406;45.602;11.904;2022-09-09T02:06:53;10.10;;;6.07;;
59571;SDS011;59406;45.602;11.904;2022-09-09T02:09:23;11.10;;;5.88;;
59571;SDS011;59406;45.602;11.904;2022-09-09T02:11:51;12.02;;;5.20;;
59571;SDS011;59406;45.602;11.904;2022-09-09T02:14:25;9.77;;;4.67;;
59571;SDS011;59406;45.602;11.904;2022-09-09T02:17:01;9.20;;;4.35;;
59571;SDS011;59406;45.602;11.904;2022-09-09T02:19:32;9.25;;;4.60;;
59571;SDS011;59406;45.602;11.904;2022-09-09T02:22:04;10.10;;;4.85;;
59571;SDS011;59406;45.602;11.904;2022-09-09T02:24:32;10.88;;;4.03;;
59571;SDS011;59406;45.602;11.904;2022-09-09T02:27:01;9.60;;;3.93;;
59571;SDS011;59406;45.602;11.904;2022-09-09T02:29:38;9.18;;;4.35;;
59571;SDS011;59406;45.602;11.904;2022-09-09T02:32:07;7.93;;;3.95;;
59571;SDS011;59406;45.602;11.904;2022-09-09T02:34:40;8.10;;;3.70;;
59571;SDS011;59406;45.602;11.904;2022-09-09T02:37:13;10.48;;;4.00;;
59571;SDS011;59406;45.602;11.904;2022-09-09T02:39:43;7.23;;;3.37;;
59571;SDS011;59406;45.602;11.904;2022-09-09T02:42:09;9.45;;;3.45;;
59571;SDS011;59406;45.602;11.904;2022-09-09T02:44:35;8.55;;;3.75;;
59571;SDS011;59406;45.602;11.904;2022-09-09T02:55:06;7.68;;;3.08;;
59571;SDS011;59406;45.602;11.904;2022-09-09T02:58:02;8.65;;;3.40;;
59571;SDS011;59406;45.602;11.904;2022-09-09T03:00:32;6.93;;;2.83;;
59571;SDS011;59406;45.602;11.904;2022-09-09T03:03:02;8.13;;;3.33;;
59571;SDS011;59406;45.602;11.904;2022-09-09T03:05:29;7.33;;;3.00;;
59571;SDS011;59406;45.602;11.904;2022-09-09T03:07:55;8.95;;;3.10;;
59571;SDS011;59406;45.602;11.904;2022-09-09T03:10:21;7.25;;;3.20;;
59571;SDS011;59406;45.602;11.904;2022-09-09T03:12:47;6.32;;;2.30;;
59571;SDS011;59406;45.602;11.904;2022-09-09T03:15:13;5.43;;;2.17;;
59571;SDS011;59406;45.602;11.904;2022-09-09T03:17:40;7.80;;;2.53;;
59571;SDS011;59406;45.602;11.904;2022-09-09T03:20:06;6.57;;;2.45;;
59571;SDS011;59406;45.602;11.904;2022-09-09T03:22:33;6.35;;;2.03;;
59571;SDS011;59406;45.602;11.904;2022-09-09T03:25:00;9.33;;;2.80;;
59571;SDS011;59406;45.602;11.904;2022-09-09T03:27:28;6.47;;;2.35;;
59571;SDS011;59406;45.602;11.904;2022-09-09T03:29:54;9.05;;;3.38;;
59571;SDS011;59406;45.602;11.904;2022-09-09T03:32:21;5.75;;;2.45;;
59571;SDS011;59406;45.602;11.904;2022-09-09T03:34:51;7.38;;;2.58;;
59571;SDS011;59406;45.602;11.904;2022-09-09T03:37:18;6.03;;;2.57;;
59571;SDS011;59406;45.602;11.904;2022-09-09T03:39:44;5.63;;;2.47;;
59571;SDS011;59406;45.602;11.904;2022-09-09T03:42:14;6.68;;;2.70;;
59571;SDS011;59406;45.602;11.904;2022-09-09T03:44:44;4.78;;;2.10;;
59571;SDS011;59406;45.602;11.904;2022-09-09T03:47:16;7.68;;;2.10;;
59571;SDS011;59406;45.602;11.904;2022-09-09T03:49:44;5.83;;;2.30;;
59571;SDS011;59406;45.602;11.904;2022-09-09T03:52:10;7.65;;;2.60;;
59571;SDS011;59406;45.602;11.904;2022-09-09T03:54:37;6.20;;;2.50;;
59571;SDS011;59406;45.602;11.904;2022-09-09T03:57:03;5.70;;;2.50;;
59571;SDS011;59406;45.602;11.904;2022-09-09T03:59:30;7.75;;;2.72;;
59571;SDS011;59406;45.602;11.904;2022-09-09T04:01:56;5.47;;;2.20;;
59571;SDS011;59406;45.602;11.904;2022-09-09T04:04:24;7.38;;;3.47;;
59571;SDS011;59406;45.602;11.904;2022-09-09T04:06:51;10.85;;;3.40;;
59571;SDS011;59406;45.602;11.904;2022-09-09T04:09:20;6.95;;;2.35;;
59571;SDS011;59406;45.602;11.904;2022-09-09T04:11:46;6.63;;;3.13;;
59571;SDS011;59406;45.602;11.904;2022-09-09T04:14:12;7.30;;;3.60;;
59571;SDS011;59406;45.602;11.904;2022-09-09T04:16:38;10.00;;;3.67;;
59571;SDS011;59406;45.602;11.904;2022-09-09T04:19:08;7.28;;;3.33;;
59571;SDS011;59406;45.602;11.904;2022-09-09T04:21:34;8.00;;;2.72;;
59571;SDS011;59406;45.602;11.904;2022-09-09T04:24:00;6.67;;;3.20;;
59571;SDS011;59406;45.602;11.904;2022-09-09T04:26:26;7.18;;;3.72;;
59571;SDS011;59406;45.602;11.904;2022-09-09T04:28:52;6.28;;;3.45;;
59571;SDS011;59406;45.602;11.904;2022-09-09T04:31:21;8.77;;;4.40;;
59571;SDS011;59406;45.602;11.904;2022-09-09T04:33:49;7.50;;;3.60;;
59571;SDS011;59406;45.602;11.904;2022-09-09T04:36:16;7.70;;;3.95;;
59571;SDS011;59406;45.602;11.904;2022-09-09T04:38:44;7.95;;;3.60;;
59571;SDS011;59406;45.602;11.904;2022-09-09T04:41:11;7.35;;;3.40;;
59571;SDS011;59406;45.602;11.904;2022-09-09T04:43:38;10.10;;;3.78;;
59571;SDS011;59406;45.602;11.904;2022-09-09T04:46:05;6.83;;;3.10;;
59571;SDS011;59406;45.602;11.904;2022-09-09T04:48:31;10.02;;;3.83;;
59571;SDS011;59406;45.602;11.904;2022-09-09T04:50:58;8.95;;;4.32;;
59571;SDS011;59406;45.602;11.904;2022-09-09T04:53:32;7.82;;;3.85;;
59571;SDS011;59406;45.602;11.904;2022-09-09T04:56:12;7.20;;;3.22;;
59571;SDS011;59406;45.602;11.904;2022-09-09T04:58:42;6.33;;;3.40;;
59571;SDS011;59406;45.602;11.904;2022-09-09T05:01:12;8.38;;;3.40;;
59571;SDS011;59406;45.602;11.904;2022-09-09T05:03:40;11.25;;;3.45;;
59571;SDS011;59406;45.602;11.904;2022-09-09T05:06:10;7.78;;;3.75;;
59571;SDS011;59406;45.602;11.904;2022-09-09T05:08:37;9.27;;;4.00;;
59571;SDS011;59406;45.602;11.904;2022-09-09T05:11:13;8.97;;;4.60;;
59571;SDS011;59406;45.602;11.904;2022-09-09T05:13:44;8.30;;;4.57;;
59571;SDS011;59406;45.602;11.904;2022-09-09T05:16:11;9.00;;;4.40;;
59571;SDS011;59406;45.602;11.904;2022-09-09T05:18:38;9.18;;;3.92;;
59571;SDS011;59406;45.602;11.904;2022-09-09T05:21:05;7.13;;;3.65;;
59571;SDS011;59406;45.602;11.904;2022-09-09T05:23:33;8.87;;;4.37;;
59571;SDS011;59406;45.602;11.904;2022-09-09T05:26:00;9.60;;;4.57;;
59571;SDS011;59406;45.602;11.904;2022-09-09T05:28:27;6.40;;;3.40;;
59571;SDS011;59406;45.602;11.904;2022-09-09T05:30:58;10.10;;;4.50;;
59571;SDS011;59406;45.602;11.904;2022-09-09T05:33:35;7.00;;;4.38;;
59571;SDS011;59406;45.602;11.904;2022-09-09T05:36:02;9.03;;;4.33;;
59571;SDS011;59406;45.602;11.904;2022-09-09T05:38:31;10.15;;;4.72;;
59571;SDS011;59406;45.602;11.904;2022-09-09T05:41:01;11.65;;;4.05;;
59571;SDS011;59406;45.602;11.904;2022-09-09T05:43:28;8.82;;;3.72;;
59571;SDS011;59406;45.602;11.904;2022-09-09T05:48:33;9.63;;;4.00;;
59571;SDS011;59406;45.602;11.904;2022-09-09T05:51:00;9.50;;;4.00;;
59571;SDS011;59406;45.602;11.904;2022-09-09T05:53:32;12.05;;;3.85;;
59571;SDS011;59406;45.602;11.904;2022-09-09T05:56:03;7.43;;;3.60;;
59571;SDS011;59406;45.602;11.904;2022-09-09T05:58:30;8.15;;;3.25;;
59571;SDS011;59406;45.602;11.904;2022-09-09T06:03:33;6.55;;;3.22;;
59571;SDS011;59406;45.602;11.904;2022-09-09T06:06:01;5.55;;;3.15;;
59571;SDS011;59406;45.602;11.904;2022-09-09T06:08:35;9.40;;;3.80;;
59571;SDS011;59406;45.602;11.904;2022-09-09T06:11:06;10.35;;;3.35;;
59571;SDS011;59406;45.602;11.904;2022-09-09T06:13:35;8.53;;;3.43;;
59571;SDS011;59406;45.602;11.904;2022-09-09T06:16:04;11.18;;;3.70;;
59571;SDS011;59406;45.602;11.904;2022-09-09T06:18:33;7.68;;;3.10;;
59571;SDS011;59406;45.602;11.904;2022-09-09T06:21:00;6.47;;;3.30;;
59571;SDS011;59406;45.602;11.904;2022-09-09T06:23:29;8.07;;;3.25;;
59571;SDS011;59406;45.602;11.904;2022-09-09T06:28:33;5.40;;;2.83;;
59571;SDS011;59406;45.602;11.904;2022-09-09T06:31:03;5.70;;;2.40;;
59571;SDS011;59406;45.602;11.904;2022-09-09T06:33:32;9.00;;;3.35;;
59571;SDS011;59406;45.602;11.904;2022-09-09T06:36:00;7.30;;;3.20;;
59571;SDS011;59406;45.602;11.904;2022-09-09T06:38:31;8.03;;;2.77;;
59571;SDS011;59406;45.602;11.904;2022-09-09T06:40:58;6.68;;;2.95;;
59571;SDS011;59406;45.602;11.904;2022-09-09T06:43:25;7.60;;;2.90;;
59571;SDS011;59406;45.602;11.904;2022-09-09T06:45:58;7.65;;;3.20;;
59571;SDS011;59406;45.602;11.904;2022-09-09T06:48:26;8.50;;;3.05;;
59571;SDS011;59406;45.602;11.904;2022-09-09T06:53:41;6.95;;;2.70;;
59571;SDS011;59406;45.602;11.904;2022-09-09T06:58:36;7.70;;;3.60;;
59571;SDS011;59406;45.602;11.904;2022-09-09T07:01:03;5.78;;;2.80;;
59571;SDS011;59406;45.602;11.904;2022-09-09T07:03:31;10.60;;;3.60;;
59571;SDS011;59406;45.602;11.904;2022-09-09T07:05:57;7.38;;;3.15;;
59571;SDS011;59406;45.602;11.904;2022-09-09T07:08:24;7.72;;;3.13;;
59571;SDS011;59406;45.602;11.904;2022-09-09T07:10:52;8.57;;;3.30;;
59571;SDS011;59406;45.602;11.904;2022-09-09T07:13:20;6.85;;;2.80;;
59571;SDS011;59406;45.602;11.904;2022-09-09T07:15:51;7.97;;;2.90;;
59571;SDS011;59406;45.602;11.904;2022-09-09T07:18:17;7.38;;;3.28;;
59571;SDS011;59406;45.602;11.904;2022-09-09T07:20:52;9.32;;;3.47;;
59571;SDS011;59406;45.602;11.904;2022-09-09T07:23:20;7.47;;;2.90;;
59571;SDS011;59406;45.602;11.904;2022-09-09T07:25:46;9.02;;;2.90;;
59571;SDS011;59406;45.602;11.904;2022-09-09T07:28:13;6.05;;;2.40;;
59571;SDS011;59406;45.602;11.904;2022-09-09T07:30:39;8.68;;;2.42;;
59571;SDS011;59406;45.602;11.904;2022-09-09T07:33:06;6.43;;;2.40;;
59571;SDS011;59406;45.602;11.904;2022-09-09T07:35:32;6.57;;;3.00;;
59571;SDS011;59406;45.602;11.904;2022-09-09T07:38:00;5.90;;;2.42;;
59571;SDS011;59406;45.602;11.904;2022-09-09T07:40:26;7.03;;;2.55;;
59571;SDS011;59406;45.602;11.904;2022-09-09T07:42:52;5.55;;;2.28;;
59571;SDS011;59406;45.602;11.904;2022-09-09T07:45:19;6.70;;;2.63;;
59571;SDS011;59406;45.602;11.904;2022-09-09T07:47:45;6.77;;;2.47;;
59571;SDS011;59406;45.602;11.904;2022-09-09T07:50:10;6.10;;;2.58;;
59571;SDS011;59406;45.602;11.904;2022-09-09T07:52:37;5.60;;;2.60;;
59571;SDS011;59406;45.602;11.904;2022-09-09T07:55:03;7.90;;;2.80;;
59571;SDS011;59406;45.602;11.904;2022-09-09T07:57:29;10.43;;;2.40;;
59571;SDS011;59406;45.602;11.904;2022-09-09T07:59:56;8.00;;;3.08;;
59571;SDS011;59406;45.602;11.904;2022-09-09T08:02:23;7.78;;;3.05;;
59571;SDS011;59406;45.602;11.904;2022-09-09T08:04:50;10.23;;;3.25;;
59571;SDS011;59406;45.602;11.904;2022-09-09T08:07:17;6.93;;;2.60;;
59571;SDS011;59406;45.602;11.904;2022-09-09T08:09:43;9.47;;;2.70;;
59571;SDS011;59406;45.602;11.904;2022-09-09T08:12:09;7.63;;;2.33;;
59571;SDS011;59406;45.602;11.904;2022-09-09T08:14:36;6.25;;;2.65;;
59571;SDS011;59406;45.602;11.904;2022-09-09T08:17:02;6.60;;;2.30;;
59571;SDS011;59406;45.602;11.904;2022-09-09T08:19:28;6.97;;;2.50;;
59571;SDS011;59406;45.602;11.904;2022-09-09T08:21:55;7.28;;;2.53;;
59571;SDS011;59406;45.602;11.904;2022-09-09T08:24:21;7.25;;;2.38;;
59571;SDS011;59406;45.602;11.904;2022-09-09T08:26:48;6.13;;;2.35;;
59571;SDS011;59406;45.602;11.904;2022-09-09T08:29:14;5.23;;;2.20;;
59571;SDS011;59406;45.602;11.904;2022-09-09T08:31:59;5.50;;;2.35;;
59571;SDS011;59406;45.602;11.904;2022-09-09T08:34:25;5.18;;;2.15;;
59571;SDS011;59406;45.602;11.904;2022-09-09T08:36:52;8.07;;;2.08;;
59571;SDS011;59406;45.602;11.904;2022-09-09T08:39:20;5.32;;;1.83;;
59571;SDS011;59406;45.602;11.904;2022-09-09T08:44:36;5.80;;;2.20;;
59571;SDS011;59406;45.602;11.904;2022-09-09T08:55:14;6.43;;;2.27;;
59571;SDS011;59406;45.602;11.904;2022-09-09T09:01:00;5.43;;;2.00;;
59571;SDS011;59406;45.602;11.904;2022-09-09T09:06:14;5.82;;;1.58;;
59571;SDS011;59406;45.602;11.904;2022-09-09T09:11:40;5.32;;;1.90;;
59571;SDS011;59406;45.602;11.904;2022-09-09T09:14:22;9.18;;;2.13;;
59571;SDS011;59406;45.602;11.904;2022-09-09T09:19:26;4.88;;;1.95;;
59571;SDS011;59406;45.602;11.904;2022-09-09T09:22:06;6.17;;;1.80;;
59571;SDS011;59406;45.602;11.904;2022-09-09T09:24:56;6.10;;;1.77;;
59571;SDS011;59406;45.602;11.904;2022-09-09T09:27:33;7.00;;;1.92;;
59571;SDS011;59406;45.602;11.904;2022-09-09T09:30:05;8.73;;;1.77;;
59571;SDS011;59406;45.602;11.904;2022-09-09T09:32:50;7.28;;;2.25;;
59571;SDS011;59406;45.602;11.904;2022-09-09T09:35:21;6.10;;;3.13;;
59571;SDS011;59406;45.602;11.904;2022-09-09T09:37:46;6.60;;;1.85;;
59571;SDS011;59406;45.602;11.904;2022-09-09T09:40:15;5.57;;;2.00;;
59571;SDS011;59406;45.602;11.904;2022-09-09T09:42:52;6.25;;;1.98;;
59571;SDS011;59406;45.602;11.904;2022-09-09T09:45:33;4.55;;;2.50;;
59571;SDS011;59406;45.602;11.904;2022-09-09T09:48:09;9.50;;;2.30;;
59571;SDS011;59406;45.602;11.904;2022-09-09T09:50:50;5.35;;;2.38;;
59571;SDS011;59406;45.602;11.904;2022-09-09T09:58:22;5.80;;;1.90;;
59571;SDS011;59406;45.602;11.904;2022-09-09T10:00:52;6.53;;;2.10;;
59571;SDS011;59406;45.602;11.904;2022-09-09T10:03:24;7.10;;;2.28;;
59571;SDS011;59406;45.602;11.904;2022-09-09T10:05:52;6.35;;;2.47;;
59571;SDS011;59406;45.602;11.904;2022-09-09T10:08:18;5.60;;;2.35;;
59571;SDS011;59406;45.602;11.904;2022-09-09T10:13:47;5.77;;;2.63;;
59571;SDS011;59406;45.602;11.904;2022-09-09T10:16:30;5.13;;;2.13;;
59571;SDS011;59406;45.602;11.904;2022-09-09T10:32:29;6.47;;;2.50;;
59571;SDS011;59406;45.602;11.904;2022-09-09T10:40:34;5.93;;;2.20;;
59571;SDS011;59406;45.602;11.904;2022-09-09T10:45:45;5.80;;;2.33;;
59571;SDS011;59406;45.602;11.904;2022-09-09T10:51:23;6.97;;;2.25;;
59571;SDS011;59406;45.602;11.904;2022-09-09T10:56:48;5.43;;;2.25;;
59571;SDS011;59406;45.602;11.904;2022-09-09T10:59:26;6.78;;;2.35;;
59571;SDS011;59406;45.602;11.904;2022-09-09T11:07:06;4.90;;;2.10;;
59571;SDS011;59406;45.602;11.904;2022-09-09T11:09:38;5.88;;;2.47;;
59571;SDS011;59406;45.602;11.904;2022-09-09T11:12:10;5.18;;;2.20;;
59571;SDS011;59406;45.602;11.904;2022-09-09T11:14:45;5.63;;;2.08;;
59571;SDS011;59406;45.602;11.904;2022-09-09T11:17:15;5.18;;;2.25;;
59571;SDS011;59406;45.602;11.904;2022-09-09T11:20:06;6.10;;;2.20;;
59571;SDS011;59406;45.602;11.904;2022-09-09T11:22:39;4.55;;;2.30;;
59571;SDS011;59406;45.602;11.904;2022-09-09T11:25:26;6.82;;;2.90;;
59571;SDS011;59406;45.602;11.904;2022-09-09T11:28:10;5.63;;;2.47;;
59571;SDS011;59406;45.602;11.904;2022-09-09T11:38:34;5.78;;;2.42;;
59571;SDS011;59406;45.602;11.904;2022-09-09T11:41:13;6.60;;;2.83;;
59571;SDS011;59406;45.602;11.904;2022-09-09T11:43:44;7.80;;;2.67;;
59571;SDS011;59406;45.602;11.904;2022-09-09T11:46:16;5.23;;;2.60;;
59571;SDS011;59406;45.602;11.904;2022-09-09T11:48:45;4.55;;;2.38;;
59571;SDS011;59406;45.602;11.904;2022-09-09T11:51:28;6.47;;;2.63;;
59571;SDS011;59406;45.602;11.904;2022-09-09T11:56:54;5.90;;;2.45;;
59571;SDS011;59406;45.602;11.904;2022-09-09T11:59:26;4.80;;;2.33;;
59571;SDS011;59406;45.602;11.904;2022-09-09T12:04:55;8.07;;;2.85;;
59571;SDS011;59406;45.602;11.904;2022-09-09T12:07:36;6.30;;;2.22;;
59571;SDS011;59406;45.602;11.904;2022-09-09T12:13:17;4.70;;;2.30;;
59571;SDS011;59406;45.602;11.904;2022-09-09T12:15:49;5.15;;;2.15;;
59571;SDS011;59406;45.602;11.904;2022-09-09T12:18:22;5.53;;;2.42;;
59571;SDS011;59406;45.602;11.904;2022-09-09T12:21:06;5.53;;;2.40;;
59571;SDS011;59406;45.602;11.904;2022-09-09T12:23:52;6.88;;;2.67;;
59571;SDS011;59406;45.602;11.904;2022-09-09T12:29:06;7.32;;;2.30;;
59571;SDS011;59406;45.602;11.904;2022-09-09T12:34:18;4.88;;;2.05;;
59571;SDS011;59406;45.602;11.904;2022-09-09T12:37:12;5.22;;;2.40;;
59571;SDS011;59406;45.602;11.904;2022-09-09T12:39:56;5.77;;;2.23;;
59571;SDS011;59406;45.602;11.904;2022-09-09T12:42:24;6.20;;;2.13;;
59571;SDS011;59406;45.602;11.904;2022-09-09T12:44:55;6.25;;;2.30;;
59571;SDS011;59406;45.602;11.904;2022-09-09T12:47:25;5.68;;;2.30;;
59571;SDS011;59406;45.602;11.904;2022-09-09T12:49:52;6.53;;;1.95;;
59571;SDS011;59406;45.602;11.904;2022-09-09T12:52:36;5.30;;;2.20;;
59571;SDS011;59406;45.602;11.904;2022-09-09T12:55:07;6.18;;;2.80;;
59571;SDS011;59406;45.602;11.904;2022-09-09T12:57:41;10.98;;;2.97;;
59571;SDS011;59406;45.602;11.904;2022-09-09T13:00:16;12.05;;;2.50;;
59571;SDS011;59406;45.602;11.904;2022-09-09T13:02:56;8.02;;;1.92;;
59571;SDS011;59406;45.602;11.904;2022-09-09T13:05:34;5.43;;;1.30;;
59571;SDS011;59406;45.602;11.904;2022-09-09T13:08:05;5.38;;;0.73;;
59571;SDS011;59406;45.602;11.904;2022-09-09T13:10:41;2.97;;;0.50;;
59571;SDS011;59406;45.602;11.904;2022-09-09T13:13:23;3.75;;;0.47;;
59571;SDS011;59406;45.602;11.904;2022-09-09T13:16:01;3.38;;;0.35;;
59571;SDS011;59406;45.602;11.904;2022-09-09T13:18:31;3.80;;;0.27;;
59571;SDS011;59406;45.602;11.904;2022-09-09T13:21:04;4.18;;;0.70;;
59571;SDS011;59406;45.602;11.904;2022-09-09T13:23:33;2.78;;;0.52;;
59571;SDS011;59406;45.602;11.904;2022-09-09T13:26:02;2.85;;;0.47;;
59571;SDS011;59406;45.602;11.904;2022-09-09T13:28:31;4.32;;;0.63;;
59571;SDS011;59406;45.602;11.904;2022-09-09T13:30:59;2.97;;;0.63;;
59571;SDS011;59406;45.602;11.904;2022-09-09T13:33:44;3.33;;;0.80;;
59571;SDS011;59406;45.602;11.904;2022-09-09T13:36:11;4.30;;;0.70;;
59571;SDS011;59406;45.602;11.904;2022-09-09T13:41:21;3.70;;;0.77;;
59571;SDS011;59406;45.602;11.904;2022-09-09T13:43:49;5.00;;;1.13;;
59571;SDS011;59406;45.602;11.904;2022-09-09T13:46:35;4.32;;;1.15;;
59571;SDS011;59406;45.602;11.904;2022-09-09T13:49:23;3.70;;;0.82;;
59571;SDS011;59406;45.602;11.904;2022-09-09T13:52:01;10.35;;;1.52;;
59571;SDS011;59406;45.602;11.904;2022-09-09T13:54:39;6.55;;;1.25;;
59571;SDS011;59406;45.602;11.904;2022-09-09T13:57:11;5.00;;;1.30;;
59571;SDS011;59406;45.602;11.904;2022-09-09T13:59:43;6.60;;;2.22;;
59571;SDS011;59406;45.602;11.904;2022-09-09T14:02:10;7.32;;;2.75;;
59571;SDS011;59406;45.602;11.904;2022-09-09T14:04:36;5.85;;;2.55;;
59571;SDS011;59406;45.602;11.904;2022-09-09T14:07:02;7.97;;;2.57;;
59571;SDS011;59406;45.602;11.904;2022-09-09T14:09:28;5.43;;;2.30;;
59571;SDS011;59406;45.602;11.904;2022-09-09T14:11:55;6.20;;;2.30;;
59571;SDS011;59406;45.602;11.904;2022-09-09T14:14:21;5.18;;;1.70;;
59571;SDS011;59406;45.602;11.904;2022-09-09T14:16:47;4.90;;;1.40;;
59571;SDS011;59406;45.602;11.904;2022-09-09T14:19:12;5.97;;;2.08;;
59571;SDS011;59406;45.602;11.904;2022-09-09T14:21:38;4.47;;;1.00;;
59571;SDS011;59406;45.602;11.904;2022-09-09T14:24:04;4.73;;;1.33;;
59571;SDS011;59406;45.602;11.904;2022-09-09T14:26:31;3.88;;;1.25;;
59571;SDS011;59406;45.602;11.904;2022-09-09T14:28:57;2.88;;;0.80;;
59571;SDS011;59406;45.602;11.904;2022-09-09T14:31:23;5.32;;;1.08;;
59571;SDS011;59406;45.602;11.904;2022-09-09T14:33:50;4.03;;;1.10;;
59571;SDS011;59406;45.602;11.904;2022-09-09T14:36:17;5.63;;;1.95;;
59571;SDS011;59406;45.602;11.904;2022-09-09T14:38:43;5.70;;;1.40;;
59571;SDS011;59406;45.602;11.904;2022-09-09T14:41:14;5.25;;;1.48;;
59571;SDS011;59406;45.602;11.904;2022-09-09T14:43:42;5.17;;;1.33;;
59571;SDS011;59406;45.602;11.904;2022-09-09T14:46:10;4.20;;;1.42;;
59571;SDS011;59406;45.602;11.904;2022-09-09T14:48:38;5.25;;;1.85;;
59571;SDS011;59406;45.602;11.904;2022-09-09T14:51:08;4.88;;;1.45;;
59571;SDS011;59406;45.602;11.904;2022-09-09T14:53:39;5.72;;;2.10;;
59571;SDS011;59406;45.602;11.904;2022-09-09T14:56:07;4.27;;;1.73;;
59571;SDS011;59406;45.602;11.904;2022-09-09T14:58:36;6.68;;;1.30;;
59571;SDS011;59406;45.602;11.904;2022-09-09T15:01:06;4.72;;;1.30;;
59571;SDS011;59406;45.602;11.904;2022-09-09T15:03:40;4.65;;;1.30;;
59571;SDS011;59406;45.602;11.904;2022-09-09T15:06:12;5.97;;;1.40;;
59571;SDS011;59406;45.602;11.904;2022-09-09T15:08:42;4.40;;;1.40;;
59571;SDS011;59406;45.602;11.904;2022-09-09T15:11:10;4.32;;;0.90;;
59571;SDS011;59406;45.602;11.904;2022-09-09T15:13:39;4.18;;;1.25;;
59571;SDS011;59406;45.602;11.904;2022-09-09T15:16:06;4.90;;;1.13;;
59571;SDS011;59406;45.602;11.904;2022-09-09T15:18:34;5.70;;;1.60;;
59571;SDS011;59406;45.602;11.904;2022-09-09T15:21:04;4.73;;;1.10;;
59571;SDS011;59406;45.602;11.904;2022-09-09T15:23:33;5.57;;;1.30;;
59571;SDS011;59406;45.602;11.904;2022-09-09T15:26:00;4.20;;;1.33;;
59571;SDS011;59406;45.602;11.904;2022-09-09T15:28:27;4.63;;;1.40;;
59571;SDS011;59406;45.602;11.904;2022-09-09T15:30:54;3.78;;;1.00;;
59571;SDS011;59406;45.602;11.904;2022-09-09T15:33:22;5.07;;;1.27;;
59571;SDS011;59406;45.602;11.904;2022-09-09T15:35:48;4.65;;;1.13;;
59571;SDS011;59406;45.602;11.904;2022-09-09T15:38:15;4.38;;;1.20;;
59571;SDS011;59406;45.602;11.904;2022-09-09T15:40:42;5.13;;;1.20;;
59571;SDS011;59406;45.602;11.904;2022-09-09T15:43:09;4.47;;;1.10;;
59571;SDS011;59406;45.602;11.904;2022-09-09T15:45:36;3.60;;;0.90;;
59571;SDS011;59406;45.602;11.904;2022-09-09T15:48:03;4.90;;;1.30;;
59571;SDS011;59406;45.602;11.904;2022-09-09T15:50:29;6.45;;;1.30;;
59571;SDS011;59406;45.602;11.904;2022-09-09T15:53:00;4.88;;;2.17;;
59571;SDS011;59406;45.602;11.904;2022-09-09T15:55:27;4.25;;;1.70;;
59571;SDS011;59406;45.602;11.904;2022-09-09T15:57:54;4.67;;;1.33;;
59571;SDS011;59406;45.602;11.904;2022-09-09T16:00:20;4.55;;;1.38;;
59571;SDS011;59406;45.602;11.904;2022-09-09T16:02:48;4.63;;;1.30;;
59571;SDS011;59406;45.602;11.904;2022-09-09T16:05:14;3.85;;;1.10;;
59571;SDS011;59406;45.602;11.904;2022-09-09T16:07:41;4.65;;;1.20;;
59571;SDS011;59406;45.602;11.904;2022-09-09T16:10:10;4.93;;;1.30;;
59571;SDS011;59406;45.602;11.904;2022-09-09T16:12:38;4.32;;;1.33;;
59571;SDS011;59406;45.602;11.904;2022-09-09T16:15:05;4.88;;;1.48;;
59571;SDS011;59406;45.602;11.904;2022-09-09T16:17:32;3.88;;;1.30;;
59571;SDS011;59406;45.602;11.904;2022-09-09T16:20:03;4.07;;;1.17;;
59571;SDS011;59406;45.602;11.904;2022-09-09T16:22:32;4.43;;;1.60;;
59571;SDS011;59406;45.602;11.904;2022-09-09T16:24:58;3.97;;;1.80;;
59571;SDS011;59406;45.602;11.904;2022-09-09T16:27:24;3.20;;;1.20;;
59571;SDS011;59406;45.602;11.904;2022-09-09T16:29:50;5.03;;;1.63;;
59571;SDS011;59406;45.602;11.904;2022-09-09T16:32:16;4.97;;;1.95;;
59571;SDS011;59406;45.602;11.904;2022-09-09T16:34:42;4.87;;;1.70;;
59571;SDS011;59406;45.602;11.904;2022-09-09T16:37:08;4.83;;;1.43;;
59571;SDS011;59406;45.602;11.904;2022-09-09T16:39:34;4.75;;;1.63;;
59571;SDS011;59406;45.602;11.904;2022-09-09T16:41:59;4.23;;;1.23;;
59571;SDS011;59406;45.602;11.904;2022-09-09T16:44:26;4.55;;;1.35;;
59571;SDS011;59406;45.602;11.904;2022-09-09T16:46:53;5.00;;;1.33;;
59571;SDS011;59406;45.602;11.904;2022-09-09T16:49:19;3.38;;;1.10;;
59571;SDS011;59406;45.602;11.904;2022-09-09T16:51:46;4.28;;;1.40;;
59571;SDS011;59406;45.602;11.904;2022-09-09T16:54:15;5.43;;;1.40;;
59571;SDS011;59406;45.602;11.904;2022-09-09T16:56:43;4.85;;;1.70;;
59571;SDS011;59406;45.602;11.904;2022-09-09T16:59:17;4.72;;;1.20;;
59571;SDS011;59406;45.602;11.904;2022-09-09T17:01:45;4.95;;;1.30;;
59571;SDS011;59406;45.602;11.904;2022-09-09T17:04:18;4.25;;;1.20;;
59571;SDS011;59406;45.602;11.904;2022-09-09T17:06:46;5.17;;;1.10;;
59571;SDS011;59406;45.602;11.904;2022-09-09T17:09:17;6.30;;;1.48;;
59571;SDS011;59406;45.602;11.904;2022-09-09T17:11:44;3.88;;;1.10;;